createdAt,value
2022-09-03T00:02:36.399Z,2.40
2022-09-03T00:05:23.468Z,2.30
2022-09-03T00:08:21.212Z,2.33
2022-09-03T00:10:56.697Z,2.20
2022-09-03T00:13:29.266Z,2.03
2022-09-03T00:15:58.128Z,1.88
2022-09-03T00:18:30.156Z,2.10
2022-09-03T00:23:31.122Z,2.25
2022-09-03T00:26:17.607Z,2.30
2022-09-03T00:29:05.558Z,2.35
2022-09-03T00:31:39.237Z,2.28
2022-09-03T00:34:24.117Z,2.42
2022-09-03T00:36:50.728Z,2.30
2022-09-03T00:39:20.090Z,2.40
2022-09-03T00:42:09.226Z,2.40
2022-09-03T00:44:54.967Z,2.80
2022-09-03T00:47:39.188Z,2.50
2022-09-03T00:50:15.011Z,2.35
2022-09-03T00:53:10.610Z,2.70
2022-09-03T00:56:19.487Z,2.45
2022-09-03T00:59:30.570Z,2.40
2022-09-03T01:02:00.158Z,2.50
2022-09-03T01:04:35.825Z,2.75
2022-09-03T01:07:37.583Z,2.40
2022-09-03T01:10:27.292Z,2.95
2022-09-03T01:12:59.665Z,2.83
2022-09-03T01:16:03.784Z,2.70
2022-09-03T01:18:40.837Z,2.50
2022-09-03T01:21:28.526Z,2.30
2022-09-03T01:24:32.811Z,2.50
2022-09-03T01:27:22.084Z,2.40
2022-09-03T01:30:06.273Z,2.53
2022-09-03T01:32:45.546Z,2.72
2022-09-03T01:35:37.362Z,2.42
2022-09-03T01:38:25.746Z,2.20
2022-09-03T01:41:42.364Z,2.40
2022-09-03T01:44:22.233Z,2.90
2022-09-03T01:46:58.710Z,2.30
2022-09-03T01:49:38.049Z,2.38
2022-09-03T01:52:36.702Z,2.90
2022-09-03T01:55:22.462Z,2.30
2022-09-03T01:58:12.890Z,2.55
2022-09-03T02:00:43.943Z,2.50
2022-09-03T02:03:12.693Z,2.28
2022-09-03T02:05:39.492Z,2.80
2022-09-03T02:08:08.845Z,2.70
2022-09-03T02:10:51.084Z,2.78
2022-09-03T02:13:35.608Z,2.80
2022-09-03T02:16:24.475Z,2.95
2022-09-03T02:19:05.861Z,2.83
2022-09-03T02:21:37.074Z,2.88
2022-09-03T02:24:05.487Z,2.90
2022-09-03T02:26:32.121Z,3.00
2022-09-03T02:28:59.248Z,3.03
2022-09-03T02:31:25.798Z,2.58
2022-09-03T02:33:52.514Z,2.90
2022-09-03T02:36:27.399Z,2.53
2022-09-03T02:38:54.331Z,2.72
2022-09-03T02:41:21.059Z,3.05
2022-09-03T02:44:14.151Z,2.80
2022-09-03T02:46:48.659Z,2.95
2022-09-03T02:49:15.409Z,3.25
2022-09-03T02:51:44.145Z,3.03
2022-09-03T02:54:12.181Z,2.80
2022-09-03T02:56:39.019Z,3.08
2022-09-03T02:59:07.309Z,3.05
2022-09-03T03:01:34.623Z,3.10
2022-09-03T03:04:01.337Z,3.13
2022-09-03T03:06:27.968Z,3.00
2022-09-03T03:08:56.196Z,3.10
2022-09-03T03:11:24.971Z,3.17
2022-09-03T03:13:52.049Z,3.10
2022-09-03T03:16:19.090Z,3.10
2022-09-03T03:18:49.059Z,3.13
2022-09-03T03:21:17.825Z,2.63
2022-09-03T03:23:45.306Z,3.22
2022-09-03T03:26:14.989Z,2.95
2022-09-03T03:28:42.475Z,3.30
2022-09-03T03:31:18.521Z,3.10
2022-09-03T03:33:50.295Z,2.72
2022-09-03T03:36:17.037Z,3.60
2022-09-03T03:38:44.672Z,3.03
2022-09-03T03:41:18.988Z,3.55
2022-09-03T03:43:45.729Z,3.35
2022-09-03T03:46:13.371Z,3.28
2022-09-03T03:48:39.968Z,3.28
2022-09-03T03:51:09.024Z,3.17
2022-09-03T03:53:37.200Z,3.50
2022-09-03T03:56:06.699Z,3.30
2022-09-03T03:58:34.149Z,3.63
2022-09-03T04:01:12.597Z,2.95
2022-09-03T04:03:39.186Z,3.00
2022-09-03T04:06:06.649Z,3.30
2022-09-03T04:08:38.985Z,3.17
2022-09-03T04:11:08.583Z,3.00
2022-09-03T04:13:38.514Z,3.00
2022-09-03T04:16:07.986Z,3.25
2022-09-03T04:18:35.460Z,3.30
2022-09-03T04:21:07.936Z,2.97
2022-09-03T04:23:36.846Z,3.53
2022-09-03T04:26:03.989Z,3.30
2022-09-03T04:28:32.429Z,3.60
2022-09-03T04:31:04.023Z,3.22
2022-09-03T04:33:32.127Z,3.67
2022-09-03T04:36:16.975Z,3.45
2022-09-03T04:38:45.795Z,3.40
2022-09-03T04:41:15.756Z,4.05
2022-09-03T04:43:43.513Z,3.58
2022-09-03T04:46:17.781Z,3.85
2022-09-03T04:48:48.996Z,3.72
2022-09-03T04:51:17.475Z,3.78
2022-09-03T04:53:47.138Z,3.70
2022-09-03T04:56:14.978Z,2.92
2022-09-03T04:58:44.661Z,2.53
2022-09-03T05:01:20.082Z,2.50
2022-09-03T05:03:47.255Z,2.70
2022-09-03T05:06:17.135Z,3.13
2022-09-03T05:08:46.445Z,2.60
2022-09-03T05:11:14.787Z,3.20
2022-09-03T05:13:41.907Z,3.10
2022-09-03T05:16:11.129Z,2.92
2022-09-03T05:18:37.858Z,3.35
2022-09-03T05:21:09.835Z,3.10
2022-09-03T05:23:39.151Z,3.25
2022-09-03T05:26:10.853Z,3.35
2022-09-03T05:28:39.908Z,3.50
2022-09-03T05:31:15.431Z,3.35
2022-09-03T05:33:47.174Z,3.60
2022-09-03T05:36:16.421Z,3.50
2022-09-03T05:38:43.838Z,3.53
2022-09-03T05:41:12.624Z,3.40
2022-09-03T05:43:39.788Z,3.60
2022-09-03T05:46:12.361Z,3.80
2022-09-03T05:48:40.598Z,3.60
2022-09-03T05:51:18.792Z,3.67
2022-09-03T05:53:48.030Z,3.38
2022-09-03T05:56:19.833Z,3.25
2022-09-03T06:01:22.749Z,3.50
2022-09-03T06:03:55.961Z,3.22
2022-09-03T06:06:27.013Z,3.47
2022-09-03T06:08:55.287Z,3.30
2022-09-03T06:11:24.106Z,3.35
2022-09-03T06:13:50.954Z,3.55
2022-09-03T06:16:17.527Z,3.90
2022-09-03T06:18:44.303Z,3.30
2022-09-03T06:21:10.924Z,4.03
2022-09-03T06:23:41.003Z,3.22
2022-09-03T06:26:14.681Z,3.40
2022-09-03T06:28:43.708Z,2.90
2022-09-03T06:31:15.431Z,3.35
2022-09-03T06:33:42.573Z,3.30
2022-09-03T06:36:14.061Z,3.20
2022-09-03T06:38:41.697Z,3.10
2022-09-03T06:41:11.071Z,3.17
2022-09-03T06:43:39.981Z,2.78
2022-09-03T06:46:10.021Z,3.20
2022-09-03T06:48:38.170Z,2.58
2022-09-03T06:51:08.108Z,2.85
2022-09-03T06:53:41.472Z,2.63
2022-09-03T06:56:13.365Z,2.50
2022-09-03T07:01:19.580Z,2.45
2022-09-03T07:03:48.224Z,2.00
2022-09-03T07:06:17.815Z,2.38
2022-09-03T07:08:46.260Z,2.30
2022-09-03T07:11:15.741Z,2.00
2022-09-03T07:13:48.142Z,2.10
2022-09-03T07:16:18.000Z,2.10
2022-09-03T07:18:45.216Z,2.00
2022-09-03T07:21:14.782Z,2.00
2022-09-03T07:23:42.309Z,2.20
2022-09-03T07:26:13.000Z,2.00
2022-09-03T07:28:41.173Z,2.30
2022-09-03T07:31:15.074Z,1.98
2022-09-03T07:33:42.615Z,1.90
2022-09-03T07:36:14.217Z,1.80
2022-09-03T07:38:44.610Z,2.40
2022-09-03T07:41:17.503Z,2.13
2022-09-03T07:43:54.872Z,1.83
2022-09-03T07:46:24.213Z,2.05
2022-09-03T07:48:52.681Z,1.90
2022-09-03T07:51:21.933Z,1.70
2022-09-03T07:53:49.059Z,2.10
2022-09-03T07:56:15.921Z,2.28
2022-09-03T07:58:42.766Z,2.17
2022-09-03T08:01:14.923Z,1.85
2022-09-03T08:03:49.304Z,2.00
2022-09-03T08:06:18.871Z,2.10
2022-09-03T08:08:45.850Z,2.08
2022-09-03T08:11:14.964Z,1.90
2022-09-03T08:13:48.194Z,1.88
2022-09-03T08:16:20.869Z,1.80
2022-09-03T08:18:47.634Z,2.38
2022-09-03T08:21:20.123Z,1.98
2022-09-03T08:23:49.072Z,2.17
2022-09-03T08:26:17.664Z,2.28
2022-09-03T08:28:45.091Z,2.00
2022-09-03T08:31:20.080Z,1.60
2022-09-03T08:33:48.976Z,1.80
2022-09-03T08:36:22.149Z,2.20
2022-09-03T08:38:52.444Z,1.95
2022-09-03T08:41:39.315Z,1.85
2022-09-03T08:44:28.233Z,1.85
2022-09-03T08:47:12.269Z,2.25
2022-09-03T08:49:59.036Z,2.00
2022-09-03T08:52:57.871Z,1.92
2022-09-03T08:55:44.657Z,2.00
2022-09-03T08:58:18.678Z,2.10
2022-09-03T09:00:48.551Z,2.03
2022-09-03T09:03:21.068Z,2.10
2022-09-03T09:05:55.653Z,2.00
2022-09-03T09:08:41.746Z,1.80
2022-09-03T09:11:38.620Z,1.90
2022-09-03T09:14:16.136Z,1.92
2022-09-03T09:17:04.829Z,1.80
2022-09-03T09:19:46.608Z,1.80
2022-09-03T09:22:33.997Z,2.00
2022-09-03T09:25:05.476Z,2.13
2022-09-03T09:27:33.319Z,2.13
2022-09-03T09:30:04.141Z,2.40
2022-09-03T09:32:32.048Z,2.20
2022-09-03T09:34:58.575Z,1.92
2022-09-03T09:37:25.696Z,1.67
2022-09-03T09:39:58.549Z,2.28
2022-09-03T09:42:26.325Z,2.30
2022-09-03T09:44:53.353Z,2.33
2022-09-03T09:47:26.956Z,1.90
2022-09-03T09:49:59.035Z,1.90
2022-09-03T09:52:29.589Z,1.90
2022-09-03T09:55:11.066Z,2.00
2022-09-03T09:57:38.819Z,2.15
2022-09-03T10:00:11.222Z,1.90
2022-09-03T10:02:40.527Z,1.75
2022-09-03T10:05:20.125Z,2.45
2022-09-03T10:08:18.200Z,2.40
2022-09-03T10:10:51.026Z,2.10
2022-09-03T10:13:43.119Z,1.60
2022-09-03T10:19:09.571Z,2.42
2022-09-03T10:21:42.228Z,2.00
2022-09-03T10:24:30.736Z,2.28
2022-09-03T10:26:58.462Z,1.90
2022-09-03T10:29:29.510Z,2.00
2022-09-03T10:32:13.832Z,1.70
2022-09-03T10:34:57.179Z,1.40
2022-09-03T10:37:54.094Z,1.70
2022-09-03T10:40:52.413Z,1.63
2022-09-03T10:43:30.129Z,1.40
2022-09-03T10:46:07.286Z,1.50
2022-09-03T10:48:52.116Z,1.40
2022-09-03T10:51:21.738Z,1.70
2022-09-03T10:54:06.740Z,1.50
2022-09-03T10:56:43.138Z,1.42
2022-09-03T10:59:33.064Z,1.70
2022-09-03T11:02:52.524Z,5.93
2022-09-03T11:05:23.085Z,1.85
2022-09-03T11:08:07.006Z,2.20
2022-09-03T11:10:37.639Z,2.45
2022-09-03T11:13:07.855Z,2.55
2022-09-03T11:15:55.250Z,2.10
2022-09-03T11:18:44.962Z,2.20
2022-09-03T11:21:17.010Z,2.08
2022-09-03T11:23:47.114Z,2.25
2022-09-03T11:26:17.640Z,2.65
2022-09-03T11:28:59.291Z,2.17
2022-09-03T11:31:32.492Z,2.70
2022-09-03T11:34:23.270Z,2.05
2022-09-03T11:37:16.568Z,2.35
2022-09-03T11:39:43.793Z,2.30
2022-09-03T11:42:13.138Z,2.30
2022-09-03T11:44:51.847Z,2.30
2022-09-03T11:47:40.996Z,2.38
2022-09-03T11:50:27.075Z,2.50
2022-09-03T11:53:06.874Z,2.28
2022-09-03T11:55:48.450Z,2.10
2022-09-03T11:58:24.938Z,1.70
2022-09-03T12:00:54.066Z,1.63
2022-09-03T12:03:42.391Z,1.67
2022-09-03T12:06:43.787Z,1.67
2022-09-03T12:09:19.363Z,1.50
2022-09-03T12:12:04.312Z,1.52
2022-09-03T12:14:38.713Z,1.58
2022-09-03T12:17:26.805Z,1.20
2022-09-03T12:19:58.236Z,1.58
2022-09-03T12:22:30.129Z,1.17
2022-09-03T12:27:38.637Z,1.50
2022-09-03T12:30:14.334Z,1.60
2022-09-03T12:32:41.257Z,1.45
2022-09-03T12:35:13.281Z,1.50
2022-09-03T12:40:31.535Z,1.40
2022-09-03T12:46:10.653Z,1.20
2022-09-03T12:48:40.311Z,1.25
2022-09-03T12:53:54.055Z,1.00
2022-09-03T12:56:22.362Z,1.40
2022-09-03T12:59:08.528Z,1.05
2022-09-03T13:01:50.860Z,1.00
2022-09-03T13:04:36.186Z,0.90
2022-09-03T13:07:26.745Z,1.15
2022-09-03T13:10:01.264Z,1.20
2022-09-03T13:12:35.714Z,1.00
2022-09-03T13:15:09.117Z,0.90
2022-09-03T13:17:56.426Z,1.10
2022-09-03T13:20:40.759Z,1.02
2022-09-03T13:23:12.578Z,1.00
2022-09-03T13:28:46.421Z,1.20
2022-09-03T13:31:35.333Z,1.33
2022-09-03T13:34:23.211Z,1.20
2022-09-03T13:37:04.047Z,1.52
2022-09-03T13:39:47.178Z,1.50
2022-09-03T13:42:23.907Z,1.23
2022-09-03T13:44:55.511Z,1.35
2022-09-03T13:48:03.350Z,1.52
2022-09-03T13:50:42.250Z,1.60
2022-09-03T13:53:22.778Z,1.30
2022-09-03T13:56:06.557Z,1.60
2022-09-03T13:58:48.342Z,1.70
2022-09-03T14:01:46.134Z,1.63
2022-09-03T14:04:21.418Z,1.50
2022-09-03T14:07:23.172Z,1.67
2022-09-03T14:10:01.706Z,2.95
2022-09-03T14:12:42.526Z,2.00
2022-09-03T14:15:16.450Z,2.72
2022-09-03T14:17:56.881Z,2.88
2022-09-03T14:20:41.706Z,2.28
2022-09-03T14:23:25.838Z,2.25
2022-09-03T14:25:56.754Z,1.40
2022-09-03T14:28:44.406Z,2.00
2022-09-03T14:31:10.983Z,1.90
2022-09-03T14:34:05.324Z,1.88
2022-09-03T14:36:42.005Z,1.60
2022-09-03T14:39:26.855Z,1.55
2022-09-03T14:42:07.114Z,1.30
2022-09-03T14:44:43.244Z,1.58
2022-09-03T14:47:24.867Z,1.17
2022-09-03T14:50:12.692Z,1.40
2022-09-03T14:53:14.572Z,1.45
2022-09-03T14:56:27.610Z,1.30
2022-09-03T14:59:00.423Z,1.50
2022-09-03T15:01:37.577Z,1.17
2022-09-03T15:04:15.023Z,1.13
2022-09-03T15:06:41.513Z,1.17
2022-09-03T15:09:22.547Z,1.10
2022-09-03T15:11:54.449Z,0.80
2022-09-03T15:14:35.399Z,0.80
2022-09-03T15:17:15.237Z,0.93
2022-09-03T15:20:07.502Z,1.33
2022-09-03T15:22:50.619Z,0.93
2022-09-03T15:25:31.476Z,1.13
2022-09-03T15:28:23.130Z,1.42
2022-09-03T15:31:10.255Z,1.30
2022-09-03T15:33:45.615Z,0.80
2022-09-03T15:36:20.372Z,1.17
2022-09-03T15:39:07.116Z,1.27
2022-09-03T15:41:40.256Z,1.00
2022-09-03T15:44:19.226Z,1.15
2022-09-03T15:46:49.015Z,0.70
2022-09-03T15:49:44.288Z,0.90
2022-09-03T15:52:31.639Z,0.93
2022-09-03T15:55:08.985Z,0.80
2022-09-03T15:57:47.559Z,0.90
2022-09-03T16:00:21.887Z,0.70
2022-09-03T16:03:07.791Z,0.73
2022-09-03T16:05:50.845Z,0.75
2022-09-03T16:08:26.539Z,0.70
2022-09-03T16:11:07.640Z,0.70
2022-09-03T16:13:53.034Z,0.60
2022-09-03T16:16:44.643Z,0.60
2022-09-03T16:19:28.231Z,0.70
2022-09-03T16:22:04.093Z,0.75
2022-09-03T16:25:00.177Z,0.60
2022-09-03T16:27:45.565Z,0.65
2022-09-03T16:30:21.716Z,0.73
2022-09-03T16:33:24.943Z,0.80
2022-09-03T16:36:02.401Z,0.60
2022-09-03T16:38:45.702Z,0.70
2022-09-03T16:41:15.798Z,0.60
2022-09-03T16:46:31.595Z,0.75
2022-09-03T16:49:23.321Z,0.85
2022-09-03T16:52:13.556Z,0.93
2022-09-03T16:54:55.856Z,0.77
2022-09-03T16:57:24.524Z,0.95
2022-09-03T17:00:08.548Z,0.80
2022-09-03T17:02:41.733Z,0.70
2022-09-03T17:05:35.979Z,1.10
2022-09-03T17:08:08.703Z,0.90
2022-09-03T17:10:41.344Z,0.98
2022-09-03T17:13:36.214Z,0.80
2022-09-03T17:16:23.652Z,1.05
2022-09-03T17:19:22.647Z,0.70
2022-09-03T17:22:04.280Z,0.88
2022-09-03T17:24:33.922Z,0.75
2022-09-03T17:27:15.410Z,0.80
2022-09-03T17:29:54.105Z,0.90
2022-09-03T17:32:28.083Z,0.85
2022-09-03T17:35:06.347Z,0.98
2022-09-03T17:37:59.258Z,0.90
2022-09-03T17:40:33.441Z,0.90
2022-09-03T17:43:24.833Z,1.00
2022-09-03T17:46:16.531Z,0.75
2022-09-03T17:48:54.866Z,0.93
2022-09-03T17:51:37.644Z,0.90
2022-09-03T17:54:13.584Z,1.15
2022-09-03T17:56:48.067Z,1.30
2022-09-03T17:59:35.940Z,1.30
2022-09-03T18:02:14.962Z,0.98
2022-09-03T18:04:52.581Z,1.10
2022-09-03T18:07:29.335Z,1.00
2022-09-03T18:10:16.431Z,0.90
2022-09-03T18:13:03.726Z,1.02
2022-09-03T18:15:41.834Z,1.17
2022-09-03T18:18:12.729Z,1.17
2022-09-03T18:21:23.321Z,0.90
2022-09-03T18:24:21.789Z,1.00
2022-09-03T18:27:16.462Z,1.10
2022-09-03T18:30:29.977Z,1.08
2022-09-03T18:33:15.976Z,1.23
2022-09-03T18:36:05.930Z,1.00
2022-09-03T18:38:53.460Z,1.02
2022-09-03T18:41:51.803Z,1.20
2022-09-03T18:45:20.757Z,1.15
2022-09-03T18:48:28.727Z,1.27
2022-09-03T18:51:25.662Z,1.13
2022-09-03T18:55:07.782Z,1.00
2022-09-03T18:58:32.243Z,1.33
2022-09-03T19:01:29.861Z,1.23
2022-09-03T19:04:36.711Z,1.38
2022-09-03T19:07:33.708Z,1.30
2022-09-03T19:10:32.798Z,1.40
2022-09-03T19:13:46.567Z,1.80
2022-09-03T19:17:10.546Z,1.65
2022-09-03T19:20:09.622Z,1.70
2022-09-03T19:22:59.760Z,1.52
2022-09-03T19:25:47.250Z,1.60
2022-09-03T19:28:41.274Z,1.50
2022-09-03T19:31:47.925Z,1.80
2022-09-03T19:34:54.218Z,1.52
2022-09-03T19:37:53.994Z,1.60
2022-09-03T19:41:21.662Z,1.52
2022-09-03T19:44:42.599Z,1.48
2022-09-03T19:47:31.686Z,1.52
2022-09-03T19:50:39.301Z,1.75
2022-09-03T19:53:30.351Z,1.50
2022-09-03T19:56:19.529Z,1.52
2022-09-03T19:59:10.534Z,1.45
2022-09-03T20:01:56.903Z,1.90
2022-09-03T20:04:54.826Z,1.70
2022-09-03T20:07:41.240Z,1.80
2022-09-03T20:10:25.386Z,1.60
2022-09-03T20:12:58.970Z,1.77
2022-09-03T20:15:35.603Z,1.75
2022-09-03T20:18:12.933Z,1.67
2022-09-03T20:20:57.782Z,1.85
2022-09-03T20:23:40.161Z,1.55
2022-09-03T20:26:21.963Z,2.10
2022-09-03T20:29:07.287Z,2.33
2022-09-03T20:31:52.647Z,3.15
2022-09-03T20:34:40.979Z,2.63
2022-09-03T20:37:45.184Z,2.33
2022-09-03T20:40:29.977Z,2.38
2022-09-03T20:42:56.499Z,2.50
2022-09-03T20:45:30.901Z,2.30
2022-09-03T20:48:08.622Z,2.03
2022-09-03T20:50:56.468Z,2.00
2022-09-03T20:53:43.530Z,2.17
2022-09-03T20:56:39.521Z,2.00
2022-09-03T20:59:47.339Z,2.00
2022-09-03T21:03:04.477Z,2.05
2022-09-03T21:06:06.770Z,1.90
2022-09-03T21:08:46.182Z,2.00
2022-09-03T21:11:31.067Z,2.08
2022-09-03T21:14:07.316Z,1.90
2022-09-03T21:16:50.823Z,1.85
2022-09-03T21:19:22.196Z,2.40
2022-09-03T21:22:01.587Z,2.00
2022-09-03T21:24:34.095Z,2.15
2022-09-03T21:27:07.279Z,2.00
2022-09-03T21:30:02.061Z,2.28
2022-09-03T21:32:42.544Z,1.90
2022-09-03T21:35:20.644Z,2.50
2022-09-03T21:37:56.018Z,2.55
2022-09-03T21:40:26.905Z,2.10
2022-09-03T21:45:50.271Z,2.53
2022-09-03T21:48:22.751Z,2.75
2022-09-03T21:51:00.978Z,2.50
2022-09-03T21:53:51.153Z,2.60
2022-09-03T21:56:45.745Z,2.47
2022-09-03T21:59:46.169Z,2.38
2022-09-03T22:02:26.194Z,2.75
2022-09-03T22:04:54.893Z,3.08
2022-09-03T22:07:39.931Z,3.50
2022-09-03T22:10:12.428Z,3.85
2022-09-03T22:13:04.126Z,4.28
2022-09-03T22:15:30.825Z,4.45
2022-09-03T22:18:06.433Z,5.05
2022-09-03T22:20:35.444Z,4.60
2022-09-03T22:23:12.140Z,4.00
2022-09-03T22:29:33.060Z,3.40
2022-09-03T22:32:11.539Z,3.67
2022-09-03T22:34:45.808Z,3.50
2022-09-03T22:37:33.175Z,3.28
2022-09-03T22:40:19.230Z,3.58
2022-09-03T22:45:47.248Z,3.58
2022-09-03T22:48:44.671Z,3.53
2022-09-03T22:51:12.753Z,3.40
2022-09-03T22:53:51.227Z,3.33
2022-09-03T22:56:23.835Z,3.30
2022-09-03T22:59:03.300Z,3.80
2022-09-03T23:01:53.475Z,3.65
2022-09-03T23:04:29.277Z,3.33
2022-09-03T23:09:33.620Z,3.65
2022-09-03T23:12:04.315Z,3.42
2022-09-03T23:14:48.796Z,3.63
2022-09-03T23:22:36.869Z,3.53
2022-09-03T23:27:42.315Z,3.33
2022-09-03T23:30:09.186Z,3.35
2022-09-03T23:32:36.033Z,3.13
2022-09-03T23:35:07.104Z,3.30
2022-09-03T23:37:52.965Z,3.20
2022-09-03T23:40:45.315Z,3.10
2022-09-03T23:46:04.047Z,3.28
2022-09-03T23:51:54.281Z,3.42
2022-09-03T23:54:39.627Z,3.47
2022-09-03T23:57:21.364Z,3.40
